createdAt,value
2018-03-29T00:00:42.140Z,6.50
2018-03-29T00:01:42.109Z,7.00
2018-03-29T00:02:42.100Z,6.40
2018-03-29T00:03:42.111Z,7.60
2018-03-29T00:04:42.051Z,8.10
2018-03-29T00:05:42.031Z,7.80
2018-03-29T00:06:42.003Z,7.30
2018-03-29T00:07:41.994Z,7.90
2018-03-29T00:08:41.955Z,7.50
2018-03-29T00:09:41.933Z,6.90
2018-03-29T00:10:41.922Z,7.90
2018-03-29T00:11:41.895Z,6.50
2018-03-29T00:12:41.873Z,9.60
2018-03-29T00:13:41.858Z,6.70
2018-03-29T00:14:41.838Z,6.80
2018-03-29T00:15:41.808Z,7.70
2018-03-29T00:16:41.784Z,7.10
2018-03-29T00:17:41.822Z,7.20
2018-03-29T00:18:41.739Z,9.00
2018-03-29T00:19:41.785Z,6.50
2018-03-29T00:20:41.729Z,8.20
2018-03-29T00:21:41.686Z,6.40
2018-03-29T00:22:41.653Z,8.30
2018-03-29T00:23:41.642Z,7.00
2018-03-29T00:24:41.630Z,8.30
2018-03-29T00:25:41.616Z,7.70
2018-03-29T00:26:41.576Z,6.60
2018-03-29T00:27:41.548Z,7.50
2018-03-29T00:28:41.534Z,7.10
2018-03-29T00:29:41.518Z,6.60
2018-03-29T00:30:41.480Z,8.10
2018-03-29T00:31:41.465Z,8.60
2018-03-29T00:32:41.448Z,9.10
2018-03-29T00:33:41.418Z,9.00
2018-03-29T00:34:41.401Z,8.60
2018-03-29T00:35:41.405Z,7.60
2018-03-29T00:36:41.365Z,10.30
2018-03-29T00:37:41.335Z,8.40
2018-03-29T00:38:41.318Z,7.70
2018-03-29T00:39:41.302Z,10.10
2018-03-29T00:40:41.274Z,7.60
2018-03-29T00:41:41.271Z,8.50
2018-03-29T00:42:41.241Z,8.30
2018-03-29T00:43:41.220Z,7.10
2018-03-29T00:44:41.184Z,6.60
2018-03-29T00:45:41.166Z,6.90
2018-03-29T00:46:41.149Z,7.90
2018-03-29T00:47:41.160Z,9.90
2018-03-29T00:48:41.106Z,7.90
2018-03-29T00:49:41.084Z,11.50
2018-03-29T00:50:41.059Z,7.60
2018-03-29T00:51:41.057Z,8.50
2018-03-29T00:52:41.026Z,9.80
2018-03-29T00:53:41.036Z,8.20
2018-03-29T00:54:40.971Z,10.50
2018-03-29T00:55:40.958Z,8.20
2018-03-29T00:56:40.928Z,9.40
2018-03-29T00:57:40.923Z,9.10
2018-03-29T00:58:40.938Z,8.90
2018-03-29T00:59:40.866Z,7.90
2018-03-29T01:00:40.842Z,8.80
2018-03-29T01:01:40.825Z,9.70
2018-03-29T01:02:40.807Z,9.80
2018-03-29T01:03:40.802Z,10.10
2018-03-29T01:04:40.796Z,8.70
2018-03-29T01:05:40.750Z,7.80
2018-03-29T01:06:40.731Z,7.70
2018-03-29T01:07:40.694Z,9.20
2018-03-29T01:08:40.679Z,8.80
2018-03-29T01:09:40.653Z,8.70
2018-03-29T01:10:40.631Z,10.00
2018-03-29T01:11:40.626Z,9.80
2018-03-29T01:12:40.604Z,7.30
2018-03-29T01:13:40.590Z,10.30
2018-03-29T01:14:40.571Z,8.00
2018-03-29T01:15:40.535Z,8.70
2018-03-29T01:16:40.506Z,9.10
2018-03-29T01:17:40.488Z,10.00
2018-03-29T01:18:40.461Z,8.30
2018-03-29T01:19:40.446Z,8.40
2018-03-29T01:20:40.419Z,9.10
2018-03-29T01:21:40.406Z,9.10
2018-03-29T01:22:40.374Z,8.50
2018-03-29T01:23:40.394Z,10.00
2018-03-29T01:24:40.335Z,9.90
2018-03-29T01:25:40.318Z,9.80
2018-03-29T01:26:40.324Z,10.80
2018-03-29T01:27:40.270Z,10.00
2018-03-29T01:28:40.247Z,8.30
2018-03-29T01:29:40.223Z,7.40
2018-03-29T01:30:40.209Z,9.30
2018-03-29T01:31:40.193Z,10.30
2018-03-29T01:32:40.190Z,11.90
2018-03-29T01:33:40.164Z,9.50
2018-03-29T01:34:40.134Z,9.90
2018-03-29T01:35:40.096Z,9.70
2018-03-29T01:36:40.080Z,10.70
2018-03-29T01:37:40.058Z,10.40
2018-03-29T01:38:40.036Z,10.20
2018-03-29T01:39:40.067Z,10.80
2018-03-29T01:40:40.008Z,11.30
2018-03-29T01:41:39.975Z,12.50
2018-03-29T01:42:39.946Z,9.70
2018-03-29T01:43:39.938Z,11.30
2018-03-29T01:44:39.915Z,11.80
2018-03-29T01:45:39.889Z,12.50
2018-03-29T01:46:39.860Z,16.00
2018-03-29T01:47:39.851Z,11.60
2018-03-29T01:48:39.829Z,10.50
2018-03-29T01:49:39.800Z,11.00
2018-03-29T01:50:39.778Z,11.90
2018-03-29T01:51:39.789Z,10.60
2018-03-29T01:52:39.732Z,11.60
2018-03-29T01:53:39.718Z,15.20
2018-03-29T01:54:39.700Z,12.00
2018-03-29T01:55:39.677Z,14.00
2018-03-29T01:56:39.655Z,12.10
2018-03-29T01:57:39.631Z,11.10
2018-03-29T01:58:39.608Z,10.60
2018-03-29T01:59:39.590Z,14.70
2018-03-29T02:00:39.565Z,12.70
2018-03-29T02:01:39.543Z,14.40
2018-03-29T02:02:39.520Z,13.90
2018-03-29T02:03:39.517Z,11.20
2018-03-29T02:04:39.497Z,14.40
2018-03-29T02:05:39.460Z,13.20
2018-03-29T02:06:39.443Z,12.80
2018-03-29T02:07:39.446Z,14.60
2018-03-29T02:08:39.408Z,13.10
2018-03-29T02:09:39.386Z,11.80
2018-03-29T02:10:39.366Z,13.10
2018-03-29T02:11:39.331Z,12.10
2018-03-29T02:12:39.324Z,12.10
2018-03-29T02:13:39.311Z,14.40
2018-03-29T02:14:39.319Z,12.10
2018-03-29T02:15:39.249Z,13.50
2018-03-29T02:16:39.226Z,13.00
2018-03-29T02:17:39.229Z,14.90
2018-03-29T02:18:39.192Z,14.50
2018-03-29T02:19:39.171Z,15.80
2018-03-29T02:20:39.157Z,15.40
2018-03-29T02:21:39.127Z,14.20
2018-03-29T02:22:39.114Z,14.10
2018-03-29T02:23:39.127Z,16.60
2018-03-29T02:24:39.063Z,14.70
2018-03-29T02:25:39.035Z,13.90
2018-03-29T02:26:39.016Z,16.20
2018-03-29T02:27:38.992Z,15.70
2018-03-29T02:28:38.991Z,13.30
2018-03-29T02:29:38.952Z,14.70
2018-03-29T02:30:38.942Z,17.20
2018-03-29T02:31:38.917Z,14.00
2018-03-29T02:32:38.895Z,14.50
2018-03-29T02:33:38.889Z,16.50
2018-03-29T02:34:38.857Z,16.60
2018-03-29T02:35:38.841Z,15.80
2018-03-29T02:36:38.855Z,16.90
2018-03-29T02:37:38.792Z,15.40
2018-03-29T02:38:38.763Z,14.80
2018-03-29T02:39:38.745Z,14.40
2018-03-29T02:40:38.726Z,14.90
2018-03-29T02:41:38.696Z,14.20
2018-03-29T02:42:38.707Z,14.20
2018-03-29T02:43:38.686Z,15.10
2018-03-29T02:44:38.659Z,15.40
2018-03-29T02:45:38.641Z,16.90
2018-03-29T02:46:38.610Z,16.10
2018-03-29T02:47:38.631Z,15.10
2018-03-29T02:48:38.580Z,15.90
2018-03-29T02:49:38.659Z,16.00
2018-03-29T02:50:38.525Z,16.80
2018-03-29T02:51:38.486Z,14.30
2018-03-29T02:52:38.465Z,14.40
2018-03-29T02:53:38.444Z,14.70
2018-03-29T02:54:38.437Z,13.70
2018-03-29T02:55:38.403Z,17.50
2018-03-29T02:56:38.390Z,18.20
2018-03-29T02:57:38.371Z,14.40
2018-03-29T02:58:38.335Z,13.90
2018-03-29T02:59:38.338Z,16.60
2018-03-29T03:00:38.295Z,13.70
2018-03-29T03:01:38.287Z,15.00
2018-03-29T03:02:38.257Z,13.30
2018-03-29T03:03:38.228Z,13.20
2018-03-29T03:04:38.217Z,13.90
2018-03-29T03:05:38.210Z,12.90
2018-03-29T03:06:38.166Z,13.70
2018-03-29T03:07:38.293Z,14.90
2018-03-29T03:08:38.135Z,17.90
2018-03-29T03:09:38.103Z,16.70
2018-03-29T03:10:38.083Z,17.90
2018-03-29T03:11:38.078Z,15.40
2018-03-29T03:12:38.056Z,16.10
2018-03-29T03:13:38.061Z,17.80
2018-03-29T03:14:37.998Z,17.00
2018-03-29T03:15:37.991Z,16.20
2018-03-29T03:16:37.975Z,13.50
2018-03-29T03:17:37.934Z,17.00
2018-03-29T03:18:37.912Z,13.50
2018-03-29T03:19:37.922Z,16.10
2018-03-29T03:20:37.872Z,13.50
2018-03-29T03:21:37.853Z,17.10
2018-03-29T03:22:37.835Z,13.80
2018-03-29T03:23:37.820Z,15.30
2018-03-29T03:24:37.817Z,14.90
2018-03-29T03:25:37.766Z,16.40
2018-03-29T03:26:37.755Z,16.20
2018-03-29T03:27:37.758Z,15.70
2018-03-29T03:28:37.702Z,15.40
2018-03-29T03:29:37.687Z,19.40
2018-03-29T03:30:37.686Z,17.20
2018-03-29T03:31:37.659Z,14.70
2018-03-29T03:32:37.630Z,14.00
2018-03-29T03:33:37.604Z,15.30
2018-03-29T03:34:37.598Z,14.50
2018-03-29T03:35:37.634Z,14.20
2018-03-29T03:36:37.547Z,15.60
2018-03-29T03:37:37.535Z,13.00
2018-03-29T03:38:37.527Z,15.80
2018-03-29T03:39:37.478Z,14.40
2018-03-29T03:40:37.452Z,14.50
2018-03-29T03:41:37.467Z,15.70
2018-03-29T03:42:37.411Z,16.20
2018-03-29T03:43:37.387Z,14.60
2018-03-29T03:44:37.380Z,14.40
2018-03-29T03:45:37.382Z,14.30
2018-03-29T03:46:37.364Z,14.80
2018-03-29T03:47:37.304Z,14.80
2018-03-29T03:48:37.313Z,15.20
2018-03-29T03:49:37.277Z,17.10
2018-03-29T03:50:37.241Z,15.40
2018-03-29T03:51:37.222Z,14.00
2018-03-29T03:52:37.205Z,16.20
2018-03-29T03:53:37.180Z,17.80
2018-03-29T03:54:37.152Z,13.30
2018-03-29T03:55:37.132Z,14.40
2018-03-29T03:56:37.123Z,15.30
2018-03-29T03:57:37.096Z,17.40
2018-03-29T03:58:37.080Z,18.40
2018-03-29T03:59:37.077Z,19.10
2018-03-29T04:00:37.057Z,17.60
2018-03-29T04:01:37.007Z,21.80
2018-03-29T04:02:36.996Z,15.10
2018-03-29T04:03:36.996Z,17.60
2018-03-29T04:04:36.985Z,18.20
2018-03-29T04:05:36.978Z,17.40
2018-03-29T04:06:36.916Z,19.50
2018-03-29T04:07:36.899Z,16.40
2018-03-29T04:08:36.862Z,18.30
2018-03-29T04:09:36.848Z,15.90
2018-03-29T04:10:36.832Z,18.70
2018-03-29T04:11:36.927Z,17.30
2018-03-29T04:12:36.787Z,17.90
2018-03-29T04:13:36.759Z,16.90
2018-03-29T04:14:36.745Z,16.50
2018-03-29T04:15:36.732Z,18.70
2018-03-29T04:16:36.692Z,17.20
2018-03-29T04:17:36.670Z,18.50
2018-03-29T04:18:36.666Z,16.80
2018-03-29T04:19:36.633Z,16.60
2018-03-29T04:20:36.607Z,16.90
2018-03-29T04:21:36.596Z,19.00
2018-03-29T04:22:36.598Z,17.60
2018-03-29T04:23:36.560Z,17.30
2018-03-29T04:24:36.533Z,18.30
2018-03-29T04:25:36.515Z,17.50
2018-03-29T04:26:36.501Z,20.20
2018-03-29T04:27:36.517Z,18.90
2018-03-29T04:28:36.475Z,19.90
2018-03-29T04:29:36.431Z,16.80
2018-03-29T04:30:36.406Z,17.90
2018-03-29T04:31:36.379Z,20.80
2018-03-29T04:32:36.362Z,17.40
2018-03-29T04:33:36.362Z,16.40
2018-03-29T04:34:36.326Z,18.80
2018-03-29T04:35:36.321Z,18.10
2018-03-29T04:36:36.391Z,14.90
2018-03-29T04:37:36.322Z,17.70
2018-03-29T04:38:36.267Z,18.40
2018-03-29T04:39:36.219Z,20.40
2018-03-29T04:40:36.214Z,18.40
2018-03-29T04:41:36.184Z,17.40
2018-03-29T04:42:36.160Z,17.40
2018-03-29T04:43:36.156Z,18.30
2018-03-29T04:44:36.117Z,21.80
2018-03-29T04:45:36.116Z,16.60
2018-03-29T04:46:36.070Z,21.30
2018-03-29T04:47:36.073Z,16.90
2018-03-29T04:48:36.046Z,22.10
2018-03-29T04:49:36.069Z,19.20
2018-03-29T04:50:36.026Z,20.80
2018-03-29T04:51:35.978Z,19.00
2018-03-29T04:52:35.963Z,18.50
2018-03-29T04:53:35.940Z,20.30
2018-03-29T04:54:35.998Z,18.90
2018-03-29T04:55:35.934Z,20.20
2018-03-29T04:56:35.891Z,23.00
2018-03-29T04:57:35.871Z,20.80
2018-03-29T04:58:35.824Z,19.00
2018-03-29T04:59:35.802Z,19.30
2018-03-29T05:00:35.827Z,20.40
2018-03-29T05:01:35.774Z,20.30
2018-03-29T05:02:35.736Z,19.20
2018-03-29T05:03:35.721Z,18.10
2018-03-29T05:04:35.722Z,20.60
2018-03-29T05:05:35.683Z,20.90
2018-03-29T05:06:35.657Z,20.00
2018-03-29T05:07:35.677Z,21.50
2018-03-29T05:08:35.627Z,19.90
2018-03-29T05:09:35.602Z,20.60
2018-03-29T05:10:35.580Z,19.70
2018-03-29T05:11:35.558Z,18.30
2018-03-29T05:12:35.544Z,21.80
2018-03-29T05:13:35.517Z,18.60
2018-03-29T05:14:35.490Z,22.00
2018-03-29T05:15:35.470Z,21.10
2018-03-29T05:16:35.456Z,20.10
2018-03-29T05:17:35.474Z,21.50
2018-03-29T05:18:35.440Z,21.60
2018-03-29T05:19:35.407Z,20.40
2018-03-29T05:20:35.367Z,22.00
2018-03-29T05:21:35.376Z,21.00
2018-03-29T05:22:35.331Z,23.50
2018-03-29T05:23:35.423Z,21.90
2018-03-29T05:24:35.283Z,23.30
2018-03-29T05:25:35.274Z,26.70
2018-03-29T05:26:35.265Z,29.20
2018-03-29T05:27:35.231Z,24.30
2018-03-29T05:28:35.215Z,22.70
2018-03-29T05:29:35.217Z,21.80
2018-03-29T05:30:35.193Z,22.10
2018-03-29T05:31:35.158Z,23.00
2018-03-29T05:32:35.156Z,23.50
2018-03-29T05:33:35.129Z,23.50
2018-03-29T05:34:35.080Z,23.30
2018-03-29T05:35:35.062Z,22.70
2018-03-29T05:36:35.057Z,20.80
2018-03-29T05:37:35.060Z,24.70
2018-03-29T05:38:34.996Z,27.10
2018-03-29T05:39:35.025Z,24.90
2018-03-29T05:40:34.965Z,25.20
2018-03-29T05:41:34.968Z,27.60
2018-03-29T05:42:34.913Z,29.50
2018-03-29T05:43:34.900Z,27.20
2018-03-29T05:44:34.938Z,28.00
2018-03-29T05:45:34.904Z,31.70
2018-03-29T05:46:34.851Z,31.30
2018-03-29T05:47:34.834Z,30.70
2018-03-29T05:48:34.810Z,32.00
2018-03-29T05:49:34.770Z,31.70
2018-03-29T05:50:34.752Z,30.80
2018-03-29T05:51:34.758Z,30.50
2018-03-29T05:52:34.720Z,30.00
2018-03-29T05:53:34.682Z,31.40
2018-03-29T05:54:34.718Z,30.90
2018-03-29T05:55:34.696Z,31.70
2018-03-29T05:56:34.653Z,34.10
2018-03-29T05:57:34.641Z,31.20
2018-03-29T05:58:34.621Z,29.70
2018-03-29T05:59:34.572Z,32.70
2018-03-29T06:00:34.572Z,32.50
2018-03-29T06:01:34.537Z,33.00
2018-03-29T06:02:34.511Z,32.20
2018-03-29T06:03:34.482Z,33.80
2018-03-29T06:04:34.452Z,37.30
2018-03-29T06:05:34.452Z,34.10
2018-03-29T06:06:34.424Z,33.90
2018-03-29T06:07:34.476Z,33.90
2018-03-29T06:08:34.404Z,38.90
2018-03-29T06:09:34.362Z,36.10
2018-03-29T06:10:34.380Z,39.00
2018-03-29T06:11:34.315Z,38.20
2018-03-29T06:12:34.324Z,39.20
2018-03-29T06:13:34.318Z,42.50
2018-03-29T06:14:34.258Z,36.70
2018-03-29T06:15:34.253Z,43.00
2018-03-29T06:16:34.235Z,42.80
2018-03-29T06:17:34.230Z,38.40
2018-03-29T06:18:34.178Z,40.20
2018-03-29T06:19:34.147Z,40.20
2018-03-29T06:20:34.156Z,40.80
2018-03-29T06:21:34.111Z,41.50
2018-03-29T06:22:34.103Z,41.50
2018-03-29T06:23:34.090Z,46.40
2018-03-29T06:24:34.051Z,42.70
2018-03-29T06:25:34.043Z,46.10
2018-03-29T06:26:34.025Z,42.60
2018-03-29T06:27:34.002Z,41.70
2018-03-29T06:28:34.114Z,45.40
2018-03-29T06:29:33.952Z,45.00
2018-03-29T06:30:33.948Z,45.20
2018-03-29T06:31:33.944Z,45.50
2018-03-29T06:32:33.953Z,43.20
2018-03-29T06:33:33.894Z,46.90
2018-03-29T06:34:33.843Z,41.40
2018-03-29T06:35:33.835Z,44.50
2018-03-29T06:36:33.834Z,44.10
2018-03-29T06:37:33.803Z,45.00
2018-03-29T06:38:33.806Z,47.60
2018-03-29T06:39:33.762Z,47.80
2018-03-29T06:40:33.739Z,44.70
2018-03-29T06:41:33.709Z,47.30
2018-03-29T06:42:33.686Z,47.10
2018-03-29T06:43:33.716Z,46.00
2018-03-29T06:44:33.678Z,44.70
2018-03-29T06:45:33.632Z,47.20
2018-03-29T06:46:33.609Z,48.40
2018-03-29T06:47:33.594Z,47.30
2018-03-29T06:48:33.598Z,49.70
2018-03-29T06:49:33.578Z,51.30
2018-03-29T06:50:33.540Z,48.20
2018-03-29T06:51:33.521Z,46.60
2018-03-29T06:52:33.571Z,46.00
2018-03-29T06:53:33.465Z,48.70
2018-03-29T06:54:33.450Z,54.40
2018-03-29T06:55:33.447Z,50.00
2018-03-29T06:56:33.440Z,50.70
2018-03-29T06:57:33.395Z,51.60
2018-03-29T06:58:33.384Z,49.60
2018-03-29T06:59:33.354Z,51.70
2018-03-29T07:00:33.342Z,49.60
2018-03-29T07:01:33.309Z,48.10
2018-03-29T07:02:33.286Z,50.70
2018-03-29T07:03:33.286Z,48.50
2018-03-29T07:04:34.009Z,52.70
2018-03-29T07:05:33.241Z,53.80
2018-03-29T07:06:33.227Z,51.40
2018-03-29T07:07:33.231Z,51.20
2018-03-29T07:08:33.326Z,51.10
2018-03-29T07:09:33.157Z,52.40
2018-03-29T07:10:33.121Z,51.60
2018-03-29T07:11:33.134Z,53.50
2018-03-29T07:12:33.090Z,52.60
2018-03-29T07:13:33.173Z,48.70
2018-03-29T07:14:33.090Z,49.70
2018-03-29T07:15:33.023Z,50.50
2018-03-29T07:16:33.065Z,51.80
2018-03-29T07:17:33.032Z,53.10
2018-03-29T07:18:33.022Z,53.20
2018-03-29T07:19:32.962Z,49.90
2018-03-29T07:20:32.963Z,51.60
2018-03-29T07:21:32.931Z,50.60
2018-03-29T07:22:32.929Z,47.70
2018-03-29T07:23:32.877Z,46.70
2018-03-29T07:24:32.862Z,49.00
2018-03-29T07:25:32.847Z,49.40
2018-03-29T07:26:32.835Z,50.50
2018-03-29T07:27:32.795Z,48.10
2018-03-29T07:28:32.786Z,51.40
2018-03-29T07:29:32.770Z,50.40
2018-03-29T07:30:32.812Z,51.40
2018-03-29T07:31:32.720Z,50.10
2018-03-29T07:32:32.703Z,49.80
2018-03-29T07:33:32.706Z,49.90
2018-03-29T07:34:32.658Z,46.90
2018-03-29T07:35:32.641Z,49.10
2018-03-29T07:36:32.668Z,49.30
2018-03-29T07:37:32.612Z,50.30
2018-03-29T07:38:32.589Z,51.20
2018-03-29T07:39:32.567Z,51.30
2018-03-29T07:40:32.553Z,50.50
2018-03-29T07:41:32.532Z,47.50
2018-03-29T07:42:32.543Z,50.60
2018-03-29T07:43:32.563Z,45.70
2018-03-29T07:44:32.484Z,47.80
2018-03-29T07:45:32.462Z,47.30
2018-03-29T07:46:32.449Z,48.20
2018-03-29T07:47:32.404Z,50.70
2018-03-29T07:48:32.382Z,49.70
2018-03-29T07:49:32.378Z,47.00
2018-03-29T07:50:32.347Z,47.10
2018-03-29T07:51:32.367Z,46.10
2018-03-29T07:52:32.328Z,49.00
2018-03-29T07:53:32.291Z,46.30
2018-03-29T07:54:32.329Z,45.60
2018-03-29T07:55:32.259Z,48.80
2018-03-29T07:56:32.260Z,45.50
2018-03-29T07:57:32.218Z,48.80
2018-03-29T07:58:32.219Z,44.10
2018-03-29T07:59:32.161Z,48.20
2018-03-29T08:00:32.155Z,47.60
2018-03-29T08:01:32.156Z,46.10
2018-03-29T08:02:32.168Z,45.30
2018-03-29T08:03:32.128Z,43.00
2018-03-29T08:04:32.121Z,47.70
2018-03-29T08:05:32.067Z,50.50
2018-03-29T08:06:32.055Z,45.30
2018-03-29T08:07:32.045Z,46.30
2018-03-29T08:08:32.012Z,46.10
2018-03-29T08:09:31.993Z,79.90
2018-03-29T08:10:31.983Z,52.80
2018-03-29T08:11:31.953Z,45.00
2018-03-29T08:12:32.013Z,59.70
2018-03-29T08:13:31.930Z,45.40
2018-03-29T08:14:31.922Z,44.50
2018-03-29T08:15:31.920Z,43.50
2018-03-29T08:16:32.049Z,43.00
2018-03-29T08:17:31.867Z,46.60
2018-03-29T08:18:31.849Z,43.40
2018-03-29T08:19:31.798Z,43.10
2018-03-29T08:20:31.811Z,46.50
2018-03-29T08:21:32.629Z,38.50
2018-03-29T08:22:31.777Z,45.80
2018-03-29T08:23:31.735Z,42.60
2018-03-29T08:24:31.766Z,43.10
2018-03-29T08:25:31.723Z,40.90
2018-03-29T08:26:31.722Z,44.50
2018-03-29T08:27:31.642Z,44.50
2018-03-29T08:28:31.637Z,37.50
2018-03-29T08:29:31.603Z,40.90
2018-03-29T08:30:31.583Z,43.30
2018-03-29T08:31:31.564Z,44.60
2018-03-29T08:32:31.563Z,44.20
2018-03-29T08:33:31.631Z,42.60
2018-03-29T08:34:31.532Z,40.60
2018-03-29T08:35:31.496Z,41.50
2018-03-29T08:36:31.513Z,46.40
2018-03-29T08:37:31.452Z,40.40
2018-03-29T08:38:31.431Z,38.70
2018-03-29T08:39:31.443Z,39.90
2018-03-29T08:40:31.419Z,42.10
2018-03-29T08:41:31.394Z,38.80
2018-03-29T08:42:31.363Z,41.80
2018-03-29T08:43:31.339Z,39.90
2018-03-29T08:44:31.343Z,41.90
2018-03-29T08:45:31.323Z,40.80
2018-03-29T08:46:31.304Z,38.10
2018-03-29T08:47:31.298Z,40.30
2018-03-29T08:48:31.305Z,40.40
2018-03-29T08:49:31.255Z,36.80
2018-03-29T08:50:31.230Z,39.40
2018-03-29T08:51:31.202Z,39.90
2018-03-29T08:52:31.181Z,40.60
2018-03-29T08:53:31.201Z,42.10
2018-03-29T08:54:31.164Z,39.90
2018-03-29T08:55:31.244Z,40.20
2018-03-29T08:56:31.200Z,39.20
2018-03-29T08:57:31.092Z,40.50
2018-03-29T08:58:31.087Z,41.40
2018-03-29T08:59:31.062Z,38.50
2018-03-29T09:00:31.051Z,41.50
2018-03-29T09:01:31.122Z,39.80
2018-03-29T09:02:31.070Z,38.10
2018-03-29T09:03:31.038Z,40.10
2018-03-29T09:04:31.011Z,42.20
2018-03-29T09:05:30.943Z,39.90
2018-03-29T09:06:30.927Z,39.00
2018-03-29T09:07:30.910Z,39.60
2018-03-29T09:08:30.900Z,41.70
2018-03-29T09:09:30.909Z,38.50
2018-03-29T09:10:30.866Z,39.80
2018-03-29T09:11:30.881Z,38.80
2018-03-29T09:12:30.885Z,41.00
2018-03-29T09:13:30.829Z,40.60
2018-03-29T09:14:30.873Z,43.10
2018-03-29T09:15:30.791Z,42.40
2018-03-29T09:16:30.760Z,40.70
2018-03-29T09:17:30.772Z,39.70
2018-03-29T09:18:30.725Z,39.00
2018-03-29T09:19:30.706Z,41.50
2018-03-29T09:20:30.702Z,41.90
2018-03-29T09:21:30.702Z,44.80
2018-03-29T09:22:30.645Z,41.40
2018-03-29T09:23:30.678Z,43.60
2018-03-29T09:24:30.626Z,40.10
2018-03-29T09:25:30.635Z,41.30
2018-03-29T09:26:30.586Z,46.40
2018-03-29T09:27:30.576Z,39.60
2018-03-29T09:28:30.579Z,37.10
2018-03-29T09:29:30.555Z,37.70
2018-03-29T09:30:30.537Z,41.00
2018-03-29T09:31:30.488Z,39.20
2018-03-29T09:32:30.593Z,39.70
2018-03-29T09:33:30.451Z,42.30
2018-03-29T09:34:30.479Z,42.60
2018-03-29T09:35:30.413Z,40.20
2018-03-29T09:36:30.461Z,38.60
2018-03-29T09:37:30.435Z,39.40
2018-03-29T09:38:30.386Z,42.30
2018-03-29T09:39:30.384Z,38.90
2018-03-29T09:40:30.371Z,39.80
2018-03-29T09:41:30.330Z,39.20
2018-03-29T09:42:30.318Z,37.30
2018-03-29T09:43:30.274Z,37.90
2018-03-29T09:44:30.290Z,41.90
2018-03-29T09:45:30.302Z,41.00
2018-03-29T09:46:30.231Z,39.80
2018-03-29T09:47:30.216Z,44.50
2018-03-29T09:48:30.194Z,42.10
2018-03-29T09:49:30.182Z,41.80
2018-03-29T09:50:30.162Z,43.70
2018-03-29T09:51:30.172Z,38.50
2018-03-29T09:52:30.126Z,44.20
2018-03-29T09:53:30.106Z,42.70
2018-03-29T09:54:30.104Z,41.80
2018-03-29T09:55:30.083Z,44.00
2018-03-29T09:56:30.169Z,46.20
2018-03-29T09:57:30.038Z,38.90
2018-03-29T09:58:30.049Z,41.00
2018-03-29T09:59:30.040Z,44.70
2018-03-29T10:00:30.842Z,44.60
2018-03-29T10:01:29.974Z,42.50
2018-03-29T10:02:29.989Z,39.90
2018-03-29T10:03:29.938Z,39.20
2018-03-29T10:04:29.920Z,39.50
2018-03-29T10:05:29.904Z,41.70
2018-03-29T10:06:29.912Z,43.00
2018-03-29T10:07:29.888Z,41.40
2018-03-29T10:08:29.869Z,41.00
2018-03-29T10:09:29.843Z,38.70
2018-03-29T10:10:29.827Z,40.90
2018-03-29T10:11:29.855Z,38.40
2018-03-29T10:12:29.834Z,39.80
2018-03-29T10:13:29.774Z,41.90
2018-03-29T10:14:29.938Z,40.30
2018-03-29T10:15:29.751Z,44.20
2018-03-29T10:16:29.736Z,40.50
2018-03-29T10:17:29.705Z,40.50
2018-03-29T10:18:29.684Z,44.10
2018-03-29T10:19:29.721Z,43.10
2018-03-29T10:20:29.664Z,43.70
2018-03-29T10:21:29.646Z,40.00
2018-03-29T10:22:29.628Z,40.30
2018-03-29T10:23:29.640Z,39.70
2018-03-29T10:24:29.594Z,41.00
2018-03-29T10:25:29.569Z,39.20
2018-03-29T10:26:29.652Z,41.60
2018-03-29T10:27:29.536Z,37.40
2018-03-29T10:28:29.537Z,37.40
2018-03-29T10:29:29.536Z,38.50
2018-03-29T10:30:30.361Z,40.40
2018-03-29T10:31:29.463Z,42.60
2018-03-29T10:32:29.458Z,38.60
2018-03-29T10:33:29.429Z,40.60
2018-03-29T10:34:29.565Z,40.90
2018-03-29T10:35:29.431Z,41.70
2018-03-29T10:36:29.390Z,41.80
2018-03-29T10:37:29.390Z,38.90
2018-03-29T10:38:29.362Z,39.60
2018-03-29T10:39:29.359Z,42.40
2018-03-29T10:40:29.326Z,39.20
2018-03-29T10:41:29.319Z,39.20
2018-03-29T10:42:29.297Z,37.20
2018-03-29T10:43:29.264Z,39.60
2018-03-29T10:44:29.284Z,44.00
2018-03-29T10:45:29.249Z,39.50
2018-03-29T10:46:29.216Z,41.10
2018-03-29T10:47:29.209Z,41.40
2018-03-29T10:48:29.188Z,41.90
2018-03-29T10:49:29.182Z,41.90
2018-03-29T10:50:29.163Z,42.30
2018-03-29T10:51:29.142Z,42.90
2018-03-29T10:52:29.147Z,46.10
2018-03-29T10:53:29.150Z,43.10
2018-03-29T10:54:29.101Z,41.80
2018-03-29T10:55:29.089Z,42.80
2018-03-29T10:56:29.148Z,46.40
2018-03-29T10:57:29.060Z,41.60
2018-03-29T10:58:29.034Z,41.40
2018-03-29T10:59:28.990Z,44.30
2018-03-29T11:00:28.984Z,43.50
2018-03-29T11:01:28.986Z,42.50
2018-03-29T11:02:28.950Z,41.10
2018-03-29T11:03:28.988Z,39.80
2018-03-29T11:04:30.588Z,42.20
2018-03-29T11:05:28.898Z,41.30
2018-03-29T11:06:28.887Z,45.10
2018-03-29T11:07:28.926Z,41.80
2018-03-29T11:08:28.889Z,41.30
2018-03-29T11:09:28.876Z,39.80
2018-03-29T11:10:28.818Z,44.40
2018-03-29T11:11:28.820Z,42.60
2018-03-29T11:12:28.837Z,42.80
2018-03-29T11:13:28.800Z,40.40
2018-03-29T11:14:28.814Z,43.30
2018-03-29T11:15:28.732Z,44.10
2018-03-29T11:16:28.896Z,45.90
2018-03-29T11:17:28.724Z,42.40
2018-03-29T11:18:28.697Z,39.80
2018-03-29T11:19:28.702Z,40.40
2018-03-29T11:20:28.667Z,43.50
2018-03-29T11:21:28.673Z,41.00
2018-03-29T11:22:28.629Z,41.30
2018-03-29T11:23:28.618Z,39.00
2018-03-29T11:24:28.575Z,38.90
2018-03-29T11:25:30.211Z,45.10
2018-03-29T11:26:28.638Z,38.30
2018-03-29T11:27:28.619Z,40.20
2018-03-29T11:28:28.523Z,41.00
2018-03-29T11:29:28.557Z,40.90
2018-03-29T11:30:28.499Z,40.90
2018-03-29T11:31:28.508Z,45.30
2018-03-29T11:32:28.507Z,41.00
2018-03-29T11:33:28.447Z,44.40
2018-03-29T11:34:28.425Z,46.10
2018-03-29T11:35:28.408Z,45.60
2018-03-29T11:36:28.399Z,38.50
2018-03-29T11:37:28.404Z,41.50
2018-03-29T11:38:28.352Z,38.80
2018-03-29T11:39:28.341Z,43.50
2018-03-29T11:40:28.335Z,39.00
2018-03-29T11:41:28.315Z,38.20
2018-03-29T11:42:28.310Z,42.10
2018-03-29T11:43:28.267Z,37.70
2018-03-29T11:44:28.257Z,37.50
2018-03-29T11:45:28.239Z,37.40
2018-03-29T11:46:28.218Z,42.10
2018-03-29T11:47:28.206Z,40.20
2018-03-29T11:48:28.189Z,35.90
2018-03-29T11:49:28.167Z,36.90
2018-03-29T11:50:28.158Z,37.10
2018-03-29T11:51:28.144Z,36.40
2018-03-29T11:52:28.141Z,35.40
2018-03-29T11:53:28.111Z,34.70
2018-03-29T11:54:28.171Z,36.10
2018-03-29T11:55:28.114Z,38.20
2018-03-29T11:56:28.083Z,34.90
2018-03-29T11:57:28.067Z,37.10
2018-03-29T11:58:28.023Z,34.70
2018-03-29T11:59:28.030Z,39.30
2018-03-29T12:00:28.002Z,40.90
2018-03-29T12:01:27.973Z,36.10
2018-03-29T12:02:27.969Z,37.60
2018-03-29T12:03:28.049Z,35.30
2018-03-29T12:04:27.960Z,38.30
2018-03-29T12:05:27.914Z,34.90
2018-03-29T12:06:27.904Z,35.70
2018-03-29T12:07:27.897Z,40.70
2018-03-29T12:08:27.925Z,38.50
2018-03-29T12:09:27.887Z,40.20
2018-03-29T12:10:27.859Z,38.20
2018-03-29T12:11:27.884Z,37.20
2018-03-29T12:12:27.896Z,34.60
2018-03-29T12:13:27.813Z,30.70
2018-03-29T12:14:27.775Z,34.50
2018-03-29T12:15:27.869Z,34.90
2018-03-29T12:16:27.775Z,39.60
2018-03-29T12:17:27.730Z,33.20
2018-03-29T12:18:27.769Z,35.30
2018-03-29T12:19:27.721Z,31.90
2018-03-29T12:20:27.682Z,32.30
2018-03-29T12:21:27.679Z,31.70
2018-03-29T12:22:27.634Z,33.50
2018-03-29T12:23:27.660Z,31.70
2018-03-29T12:24:27.649Z,33.10
2018-03-29T12:25:27.650Z,36.10
2018-03-29T12:26:27.626Z,32.40
2018-03-29T12:27:27.590Z,29.60
2018-03-29T12:28:27.572Z,31.60
2018-03-29T12:29:27.552Z,29.60
2018-03-29T12:30:27.520Z,28.40
2018-03-29T12:31:27.493Z,26.50
2018-03-29T12:32:27.500Z,29.00
2018-03-29T12:33:27.499Z,30.40
2018-03-29T12:34:27.458Z,28.90
2018-03-29T12:35:27.509Z,30.80
2018-03-29T12:36:27.427Z,30.40
2018-03-29T12:37:27.411Z,32.20
2018-03-29T12:38:27.403Z,33.30
2018-03-29T12:39:29.140Z,30.50
2018-03-29T12:40:27.390Z,31.70
2018-03-29T12:41:27.346Z,29.10
2018-03-29T12:42:27.330Z,30.40
2018-03-29T12:43:27.378Z,25.50
2018-03-29T12:44:27.380Z,26.70
2018-03-29T12:45:27.303Z,28.90
2018-03-29T12:46:27.259Z,25.00
2018-03-29T12:47:27.278Z,27.80
2018-03-29T12:48:27.239Z,29.60
2018-03-29T12:49:27.303Z,25.70
2018-03-29T12:50:27.436Z,28.00
2018-03-29T12:51:27.213Z,28.20
2018-03-29T12:52:27.209Z,29.70
2018-03-29T12:53:27.155Z,30.70
2018-03-29T12:54:27.143Z,32.10
2018-03-29T12:55:27.124Z,28.20